Charles Hughes — WCW4414 — position and weather

sailwx.info

Track history (hours):
 
Tides and Currents Weather Stations Pressure Air Temp Water Temp Dewpoint Dewpoint Depression Visibility Wind Speed Wind Dir Waves Ship Positions

Charles Hughes

Owner: VANE LINE BUNKENING INC, Philadelphia, PA. More information available from US FCC via Universal Licensing System and Coast Guard Vessel Documentation Center.

Last reported at 2017-Oct-18 01:31 UTC. Time now 2017-Oct-19 16:25 UTC.
Position N 36°48' W 076°18'.

Length 23 m; draft 3 m.

Type: Tug. MMSI: 367094730.

Date/timePositionNaut miles runAvg speedWind from/ knotsBaromVisibWave heightAir tempDewpointWater temp
2017-Oct-18 01:31N 36°48' W 076°18'2 4.1
2017-Oct-18 01:09N 36°47' W 076°18'0 0.0
2017-Oct-18 00:05N 36°47' W 076°18'0 0.0
2017-Oct-17 23:48N 36°47' W 076°18'0 0.0
2017-Oct-17 23:28N 36°47' W 076°18'0 0.0
2017-Oct-17 22:50N 36°47' W 076°18'0 0.0
2017-Oct-17 22:19N 36°47' W 076°18'0 0.0
2017-Oct-17 21:51N 36°47' W 076°18'2 4.4
2017-Oct-17 21:30N 36°48' W 076°18'0 0.3
2017-Oct-17 21:00N 36°48' W 076°18'0 0.0
2017-Oct-17 20:26N 36°48' W 076°18'0 0.0
2017-Oct-17 20:00N 36°48' W 076°18'0 0.0
2017-Oct-17 19:21N 36°48' W 076°18'0 0.0
2017-Oct-17 18:57N 36°48' W 076°18'0 0.0
2017-Oct-17 18:20N 36°48' W 076°18'0 0.0
2017-Oct-17 17:53N 36°48' W 076°18'0 0.0
2017-Oct-17 17:26N 36°48' W 076°18'0 0.0
2017-Oct-17 15:30N 36°48' W 076°18'0 0.0
2017-Oct-17 14:52N 36°48' W 076°18'0 0.0
2017-Oct-17 14:29N 36°48' W 076°18'0 0.1
2017-Oct-17 13:44N 36°48' W 076°18'0 0.0
2017-Oct-17 13:30N 36°48' W 076°18'0 0.0
2017-Oct-17 12:01N 36°48' W 076°18'0 0.0
2017-Oct-17 11:51N 36°48' W 076°18'0 0.0
2017-Oct-17 11:05N 36°48' W 076°18'0 0.0
2017-Oct-17 10:54N 36°48' W 076°18'0 0.0
2017-Oct-17 10:30N 36°48' W 076°18'0 0.0
2017-Oct-17 09:36N 36°48' W 076°18'0 0.0
2017-Oct-17 09:30N 36°48' W 076°18'0 0.0
2017-Oct-17 08:39N 36°48' W 076°18'0 0.0
2017-Oct-17 08:26N 36°48' W 076°18'0 0.0
2017-Oct-17 08:00N 36°48' W 076°18'0 0.0
2017-Oct-17 07:30N 36°48' W 076°18'0 0.0
2017-Oct-17 07:00N 36°48' W 076°18'0 0.0
2017-Oct-17 06:30N 36°48' W 076°18'0 0.0
2017-Oct-17 06:00N 36°48' W 076°18'0 0.1
2017-Oct-17 05:30N 36°48' W 076°18'3 5.2
2017-Oct-17 05:00N 36°51' W 076°18'3 6.9
2017-Oct-17 04:30N 36°54' W 076°20'3 0.6
2017-Oct-16 23:21N 36°57' W 076°20'2 6.3
2017-Oct-16 23:00N 36°55' W 076°20'1 2.8
2017-Oct-16 22:30N 36°53' W 076°20'1 1.5
2017-Oct-16 22:00N 36°53' W 076°20'1 1.6
2017-Oct-16 21:30N 36°52' W 076°19'2 4.4
2017-Oct-16 21:00N 36°50' W 076°18'2 4.8
2017-Oct-16 20:30N 36°48' W 076°18'0 0.7
2017-Oct-16 20:00N 36°48' W 076°18'1 2.2
2017-Oct-16 19:30N 36°47' W 076°18'0 0.0
2017-Oct-16 19:00N 36°47' W 076°18'0 0.0
2017-Oct-16 18:30N 36°47' W 076°18'0 0.0
2017-Oct-16 18:00N 36°47' W 076°18'1 2.9
2017-Oct-16 17:30N 36°48' W 076°18'0 0.0
2017-Oct-16 17:00N 36°48' W 076°18'0 0.0
2017-Oct-16 16:30N 36°48' W 076°18'0 0.0
2017-Oct-16 16:00N 36°48' W 076°18'0 0.0
2017-Oct-16 15:30N 36°48' W 076°18'0 0.0
2017-Oct-16 15:00N 36°48' W 076°18'0 0.0
2017-Oct-16 14:00N 36°48' W 076°18'0 0.0
2017-Oct-16 13:30N 36°48' W 076°18'0 0.0
2017-Oct-16 13:00N 36°48' W 076°18'0 0.0
2017-Oct-16 12:30N 36°48' W 076°18'0 0.0
2017-Oct-16 12:00N 36°48' W 076°18'0 0.0
2017-Oct-16 11:30N 36°48' W 076°18'0 0.0
2017-Oct-16 11:00N 36°48' W 076°18'0 0.0
2017-Oct-16 10:30N 36°48' W 076°18'0 0.0
2017-Oct-16 10:00N 36°48' W 076°18'0 0.0
2017-Oct-16 09:30N 36°48' W 076°18'0 0.0
2017-Oct-16 09:00N 36°48' W 076°18'0 0.0
2017-Oct-16 08:30N 36°48' W 076°18'0 0.0
2017-Oct-16 08:00N 36°48' W 076°18'0 0.0
2017-Oct-16 07:30N 36°48' W 076°18'0 0.0
2017-Oct-16 07:00N 36°48' W 076°18'0 0.0
2017-Oct-16 06:30N 36°48' W 076°18'0 0.0
2017-Oct-16 06:00N 36°48' W 076°18'0 0.0
2017-Oct-16 05:30N 36°48' W 076°18'0 0.0
2017-Oct-16 05:00N 36°48' W 076°18'0 0.0
2017-Oct-16 04:30N 36°48' W 076°18'2 4.7
2017-Oct-16 04:00N 36°50' W 076°18'8 1.4
2017-Oct-15 22:13N 36°58' W 076°22'2 5.0
2017-Oct-15 21:53N 36°57' W 076°20'3 7.3
2017-Oct-15 21:28N 36°54' W 076°20'3 6.4
2017-Oct-15 21:00N 36°51' W 076°18'2 4.5
2017-Oct-15 20:30N 36°49' W 076°17'1 2.1
2017-Oct-15 20:00N 36°48' W 076°18'0 0.0
2017-Oct-15 19:30N 36°48' W 076°18'0 0.0
2017-Oct-15 15:47N 36°48' W 076°18'0 0.0
2017-Oct-15 15:30N 36°48' W 076°18'0 0.0
2017-Oct-15 15:00N 36°48' W 076°18'0 0.0
2017-Oct-15 14:00N 36°48' W 076°18'0 0.0
2017-Oct-15 13:30N 36°48' W 076°18'1 0.2
2017-Oct-15 06:39N 36°47' W 076°18'0 0.0
2017-Oct-15 06:30N 36°47' W 076°18'0 0.0
2017-Oct-15 06:00N 36°47' W 076°18'0 0.0
2017-Oct-15 05:30N 36°47' W 076°18'0 0.0
2017-Oct-15 05:00N 36°47' W 076°18'0 0.0
2017-Oct-15 04:30N 36°47' W 076°18'0 0.0
2017-Oct-15 04:00N 36°47' W 076°18'3 5.2
2017-Oct-15 03:30N 36°49' W 076°17'3 5.9
2017-Oct-15 03:00N 36°51' W 076°20'0 0.2
2017-Oct-15 02:30N 36°51' W 076°20'0 0.0
2017-Oct-15 01:59N 36°51' W 076°20'0 0.0
2017-Oct-15 01:30N 36°51' W 076°20'0 0.0
2017-Oct-15 01:00N 36°51' W 076°20'0 0.0
2017-Oct-15 00:26N 36°51' W 076°20'0 0.0
2017-Oct-15 00:00N 36°51' W 076°20'4 1.6
2017-Oct-14 21:34N 36°48' W 076°18'0 6.9
2017-Oct-14 21:30N 36°48' W 076°18'1 2.1
2017-Oct-14 21:00N 36°47' W 076°18'0 0.0
2017-Oct-14 20:30N 36°47' W 076°18'0 0.0
2017-Oct-14 20:00N 36°47' W 076°18'0 0.0
2017-Oct-14 19:30N 36°47' W 076°18'1 2.9
2017-Oct-14 19:00N 36°48' W 076°18'0 0.0
2017-Oct-14 18:30N 36°48' W 076°18'0 0.0
2017-Oct-14 18:00N 36°48' W 076°18'0 0.5
2017-Oct-14 17:30N 36°48' W 076°18'0 0.0
2017-Oct-14 17:00N 36°48' W 076°18'0 0.0
2017-Oct-14 16:30N 36°48' W 076°18'0 0.0
2017-Oct-14 16:00N 36°48' W 076°18'0 0.5
2017-Oct-14 15:30N 36°48' W 076°18'0 0.0
2017-Oct-14 15:00N 36°48' W 076°18'0 0.0
2017-Oct-14 14:30N 36°48' W 076°18'3 5.1
2017-Oct-14 14:00N 36°51' W 076°17'1 1.6
2017-Oct-14 13:30N 36°50' W 076°18'2 3.6
2017-Oct-14 13:00N 36°48' W 076°18'0 0.0
2017-Oct-14 12:30N 36°48' W 076°18'0 0.1
2017-Oct-14 12:00N 36°48' W 076°18'0 0.7
2017-Oct-14 11:30N 36°48' W 076°18'1 2.3
2017-Oct-14 11:00N 36°47' W 076°18'0 0.0
2017-Oct-14 10:30N 36°47' W 076°18'0 0.0
2017-Oct-14 10:00N 36°47' W 076°18'0 0.0
2017-Oct-14 09:30N 36°47' W 076°18'0 0.0
2017-Oct-14 09:00N 36°47' W 076°18'0 0.0
2017-Oct-14 08:30N 36°47' W 076°18'0 0.0
2017-Oct-14 08:00N 36°47' W 076°18'0 0.0
2017-Oct-14 07:30N 36°47' W 076°18'0 0.0
2017-Oct-14 07:00N 36°47' W 076°18'0 0.0
2017-Oct-14 06:30N 36°47' W 076°18'0 0.0
2017-Oct-14 06:00N 36°47' W 076°18'0 0.0
2017-Oct-14 05:30N 36°47' W 076°18'0 0.0
2017-Oct-14 05:00N 36°47' W 076°18'0 0.0
2017-Oct-14 04:30N 36°47' W 076°18'0 0.0
2017-Oct-14 04:00N 36°47' W 076°18'0 0.0
2017-Oct-14 03:30N 36°47' W 076°18'0 0.0
2017-Oct-14 03:00N 36°47' W 076°18'0 0.0
2017-Oct-14 02:30N 36°47' W 076°18'0 0.0
2017-Oct-14 02:00N 36°47' W 076°18'0 0.0
2017-Oct-14 01:28N 36°47' W 076°18'1 2.6
2017-Oct-14 00:55N 36°48' W 076°18'1 3.2
2017-Oct-14 00:28N 36°47' W 076°18'0 0.7
2017-Oct-13 23:57N 36°47' W 076°18'3 6.1
2017-Oct-13 23:30N 36°50' W 076°18'3 6.5
2017-Oct-13 23:00N 36°52' W 076°20'0 0.0
2017-Oct-12 08:47N 36°52' W 076°20'2 6.9
2017-Oct-12 08:30N 36°51' W 076°18'3 6.2
2017-Oct-12 08:00N 36°48' W 076°18'0 0.3
2017-Oct-12 07:30N 36°48' W 076°18'0 0.0
2017-Oct-12 06:59N 36°48' W 076°18'0 0.0
2017-Oct-12 06:28N 36°48' W 076°18'0 0.0
2017-Oct-11 23:05N 36°48' W 076°18'0 0.1
2017-Oct-11 23:00N 36°48' W 076°18'0 0.0
2017-Oct-11 22:29N 36°48' W 076°18'0 0.0
2017-Oct-11 21:59N 36°48' W 076°18'0 0.0
2017-Oct-11 21:30N 36°48' W 076°18'0 0.0
2017-Oct-11 20:57N 36°48' W 076°18'0 0.0
2017-Oct-11 20:28N 36°48' W 076°18'0 0.0
2017-Oct-11 19:59N 36°48' W 076°18'0 0.0
2017-Oct-11 19:30N 36°48' W 076°18'0 0.0
2017-Oct-11 18:59N 36°48' W 076°18'0 0.0
2017-Oct-11 18:30N 36°48' W 076°18'0 0.0
2017-Oct-11 17:53N 36°48' W 076°18'0 0.0
2017-Oct-11 17:30N 36°48' W 076°18'0 0.0
2017-Oct-11 17:00N 36°48' W 076°18'0 0.0
2017-Oct-10 23:58N 36°48' W 076°18'0 0.0
2017-Oct-10 23:30N 36°48' W 076°18'0 0.0
2017-Oct-10 23:00N 36°48' W 076°18'0 0.0
2017-Oct-10 22:29N 36°48' W 076°18'0 0.0
2017-Oct-10 22:00N 36°48' W 076°18'0 0.0
2017-Oct-10 21:30N 36°48' W 076°18'0 0.0
2017-Oct-10 20:59N 36°48' W 076°18'0 0.0
2017-Oct-10 20:30N 36°48' W 076°18'0 0.0
2017-Oct-10 19:59N 36°48' W 076°18'0 0.0
2017-Oct-10 19:30N 36°48' W 076°18'0 0.0
2017-Oct-10 19:00N 36°48' W 076°18'0 0.0
2017-Oct-10 18:30N 36°48' W 076°18'0 0.0
2017-Oct-10 17:59N 36°48' W 076°18'0 0.0
2017-Oct-10 17:30N 36°48' W 076°18'0 0.0
2017-Oct-10 17:00N 36°48' W 076°18'0 0.0
2017-Oct-10 16:29N 36°48' W 076°18'0 0.0
2017-Oct-10 15:58N 36°48' W 076°18'0 0.0
2017-Oct-10 15:28N 36°48' W 076°18'0 0.0
2017-Oct-10 15:00N 36°48' W 076°18'0 0.0
2017-Oct-10 13:57N 36°48' W 076°18'0 0.0
2017-Oct-10 13:29N 36°48' W 076°18'0 0.0
2017-Oct-10 13:00N 36°48' W 076°18'0 0.0
2017-Oct-10 12:29N 36°48' W 076°18'0 0.0
2017-Oct-10 11:56N 36°48' W 076°18'0 0.0
2017-Oct-10 11:30N 36°48' W 076°18'0 0.0
2017-Oct-10 11:00N 36°48' W 076°18'0 0.0
2017-Oct-10 10:22N 36°48' W 076°18'0 0.0
2017-Oct-10 10:00N 36°48' W 076°18'0 0.0
2017-Oct-10 09:27N 36°48' W 076°18'0 0.0
2017-Oct-10 09:00N 36°48' W 076°18'0 0.0
2017-Oct-10 08:27N 36°48' W 076°18'0 0.0
2017-Oct-10 07:57N 36°48' W 076°18'0 0.0
2017-Oct-10 07:30N 36°48' W 076°18'0 0.0
2017-Oct-10 06:59N 36°48' W 076°18'0 0.0
2017-Oct-10 06:30N 36°48' W 076°18'0 0.0
2017-Oct-09 06:16N 36°48' W 076°18'0 0.0
2017-Oct-09 04:37N 36°48' W 076°18'0 0.0
2017-Oct-09 04:29N 36°48' W 076°18'0 0.0
2017-Oct-09 03:57N 36°48' W 076°18'0 0.0
2017-Oct-09 03:30N 36°48' W 076°18'0 0.0
2017-Oct-09 02:59N 36°48' W 076°18'0 0.0
2017-Oct-09 02:30N 36°48' W 076°18'0 0.0
2017-Oct-09 02:00N 36°48' W 076°18'0 0.0
2017-Oct-09 01:30N 36°48' W 076°18'0 0.0
2017-Oct-09 00:56N 36°48' W 076°18'0 0.0
2017-Oct-09 00:30N 36°48' W 076°18'0 0.0
2017-Oct-09 00:00N 36°48' W 076°18'0 0.0
2017-Oct-08 23:29N 36°48' W 076°18'0 0.0
2017-Oct-08 23:00N 36°48' W 076°18'0 0.0
2017-Oct-08 22:30N 36°48' W 076°18'0 0.0
2017-Oct-08 22:00N 36°48' W 076°18'0 0.0
2017-Oct-08 21:30N 36°48' W 076°18'0 0.0
2017-Oct-08 21:00N 36°48' W 076°18'0 0.0
2017-Oct-08 20:30N 36°48' W 076°18'0 0.0
2017-Oct-08 20:00N 36°48' W 076°18'0 0.0
2017-Oct-08 19:30N 36°48' W 076°18'0 0.0
2017-Oct-08 19:00N 36°48' W 076°18'0 0.0
2017-Oct-08 18:30N 36°48' W 076°18'0 0.0
2017-Oct-08 18:00N 36°48' W 076°18'0 0.0
2017-Oct-08 17:30N 36°48' W 076°18'0 0.0
2017-Oct-08 17:00N 36°48' W 076°18'0 0.0
2017-Oct-08 16:30N 36°48' W 076°18'0 0.0
2017-Oct-08 16:00N 36°48' W 076°18'0 0.0
2017-Oct-08 15:29N 36°48' W 076°18'0 0.0
2017-Oct-08 14:59N 36°48' W 076°18'0 0.0
2017-Oct-08 14:29N 36°48' W 076°18'0 0.0
2017-Oct-08 14:00N 36°48' W 076°18'0 0.0
2017-Oct-08 13:28N 36°48' W 076°18'0 0.0
2017-Oct-08 13:00N 36°48' W 076°18'0 0.0
2017-Oct-08 12:30N 36°48' W 076°18'0 0.0
2017-Oct-08 11:59N 36°48' W 076°18'0 0.0
2017-Oct-08 11:30N 36°48' W 076°18'0 0.0
2017-Oct-08 11:00N 36°48' W 076°18'0 0.0
2017-Oct-08 10:29N 36°48' W 076°18'0 0.0
2017-Oct-08 10:00N 36°48' W 076°18'0 0.0
2017-Oct-08 09:30N 36°48' W 076°18'0 0.0
2017-Oct-08 08:59N 36°48' W 076°18'0 0.0
2017-Oct-08 08:30N 36°48' W 076°18'0 0.0
2017-Oct-08 07:57N 36°48' W 076°18'0 0.0
2017-Oct-08 07:29N 36°48' W 076°18'0 0.0
2017-Oct-08 06:59N 36°48' W 076°18'0 0.0
2017-Oct-08 06:27N 36°48' W 076°18'0 0.0
2017-Oct-08 05:59N 36°48' W 076°18'0 0.0
2017-Oct-08 05:30N 36°48' W 076°18'  
Track history (hours):
 
Tides and Currents Weather Stations Pressure Air Temp Water Temp Dewpoint Dewpoint Depression Visibility Wind Speed Wind Dir Waves Ship Positions

Charles Hughes

Owner: VANE LINE BUNKENING INC, Philadelphia, PA. More information available from US FCC via Universal Licensing System and Coast Guard Vessel Documentation Center.

Last reported at 2017-Oct-18 01:31 UTC. Time now 2017-Oct-19 16:25 UTC.
Position N 36°48' W 076°18'.

Length 23 m; draft 3 m.

Type: Tug. MMSI: 367094730.

Date/timePositionNaut miles runAvg speedWind from/ knotsBaromVisibWave heightAir tempDewpointWater temp
2017-Oct-18 01:31N 36°48' W 076°18'2 4.1
2017-Oct-18 01:09N 36°47' W 076°18'0 0.0
2017-Oct-18 00:05N 36°47' W 076°18'0 0.0
2017-Oct-17 23:48N 36°47' W 076°18'0 0.0
2017-Oct-17 23:28N 36°47' W 076°18'0 0.0
2017-Oct-17 22:50N 36°47' W 076°18'0 0.0
2017-Oct-17 22:19N 36°47' W 076°18'0 0.0
2017-Oct-17 21:51N 36°47' W 076°18'2 4.4
2017-Oct-17 21:30N 36°48' W 076°18'0 0.3
2017-Oct-17 21:00N 36°48' W 076°18'0 0.0
2017-Oct-17 20:26N 36°48' W 076°18'0 0.0
2017-Oct-17 20:00N 36°48' W 076°18'0 0.0
2017-Oct-17 19:21N 36°48' W 076°18'0 0.0
2017-Oct-17 18:57N 36°48' W 076°18'0 0.0
2017-Oct-17 18:20N 36°48' W 076°18'0 0.0
2017-Oct-17 17:53N 36°48' W 076°18'0 0.0
2017-Oct-17 17:26N 36°48' W 076°18'0 0.0
2017-Oct-17 15:30N 36°48' W 076°18'0 0.0
2017-Oct-17 14:52N 36°48' W 076°18'0 0.0
2017-Oct-17 14:29N 36°48' W 076°18'0 0.1
2017-Oct-17 13:44N 36°48' W 076°18'0 0.0
2017-Oct-17 13:30N 36°48' W 076°18'0 0.0
2017-Oct-17 12:01N 36°48' W 076°18'0 0.0
2017-Oct-17 11:51N 36°48' W 076°18'0 0.0
2017-Oct-17 11:05N 36°48' W 076°18'0 0.0
2017-Oct-17 10:54N 36°48' W 076°18'0 0.0
2017-Oct-17 10:30N 36°48' W 076°18'0 0.0
2017-Oct-17 09:36N 36°48' W 076°18'0 0.0
2017-Oct-17 09:30N 36°48' W 076°18'0 0.0
2017-Oct-17 08:39N 36°48' W 076°18'0 0.0
2017-Oct-17 08:26N 36°48' W 076°18'0 0.0
2017-Oct-17 08:00N 36°48' W 076°18'0 0.0
2017-Oct-17 07:30N 36°48' W 076°18'0 0.0
2017-Oct-17 07:00N 36°48' W 076°18'0 0.0
2017-Oct-17 06:30N 36°48' W 076°18'0 0.0
2017-Oct-17 06:00N 36°48' W 076°18'0 0.1
2017-Oct-17 05:30N 36°48' W 076°18'3 5.2
2017-Oct-17 05:00N 36°51' W 076°18'3 6.9
2017-Oct-17 04:30N 36°54' W 076°20'3 0.6
2017-Oct-16 23:21N 36°57' W 076°20'2 6.3
2017-Oct-16 23:00N 36°55' W 076°20'1 2.8
2017-Oct-16 22:30N 36°53' W 076°20'1 1.5
2017-Oct-16 22:00N 36°53' W 076°20'1 1.6
2017-Oct-16 21:30N 36°52' W 076°19'2 4.4
2017-Oct-16 21:00N 36°50' W 076°18'2 4.8
2017-Oct-16 20:30N 36°48' W 076°18'0 0.7
2017-Oct-16 20:00N 36°48' W 076°18'1 2.2
2017-Oct-16 19:30N 36°47' W 076°18'0 0.0
2017-Oct-16 19:00N 36°47' W 076°18'0 0.0
2017-Oct-16 18:30N 36°47' W 076°18'0 0.0
2017-Oct-16 18:00N 36°47' W 076°18'1 2.9
2017-Oct-16 17:30N 36°48' W 076°18'0 0.0
2017-Oct-16 17:00N 36°48' W 076°18'0 0.0
2017-Oct-16 16:30N 36°48' W 076°18'0 0.0
2017-Oct-16 16:00N 36°48' W 076°18'0 0.0
2017-Oct-16 15:30N 36°48' W 076°18'0 0.0
2017-Oct-16 15:00N 36°48' W 076°18'0 0.0
2017-Oct-16 14:00N 36°48' W 076°18'0 0.0
2017-Oct-16 13:30N 36°48' W 076°18'0 0.0
2017-Oct-16 13:00N 36°48' W 076°18'0 0.0
2017-Oct-16 12:30N 36°48' W 076°18'0 0.0
2017-Oct-16 12:00N 36°48' W 076°18'0 0.0
2017-Oct-16 11:30N 36°48' W 076°18'0 0.0
2017-Oct-16 11:00N 36°48' W 076°18'0 0.0
2017-Oct-16 10:30N 36°48' W 076°18'0 0.0
2017-Oct-16 10:00N 36°48' W 076°18'0 0.0
2017-Oct-16 09:30N 36°48' W 076°18'0 0.0
2017-Oct-16 09:00N 36°48' W 076°18'0 0.0
2017-Oct-16 08:30N 36°48' W 076°18'0 0.0
2017-Oct-16 08:00N 36°48' W 076°18'0 0.0
2017-Oct-16 07:30N 36°48' W 076°18'0 0.0
2017-Oct-16 07:00N 36°48' W 076°18'0 0.0
2017-Oct-16 06:30N 36°48' W 076°18'0 0.0
2017-Oct-16 06:00N 36°48' W 076°18'0 0.0
2017-Oct-16 05:30N 36°48' W 076°18'0 0.0
2017-Oct-16 05:00N 36°48' W 076°18'0 0.0
2017-Oct-16 04:30N 36°48' W 076°18'2 4.7
2017-Oct-16 04:00N 36°50' W 076°18'8 1.4
2017-Oct-15 22:13N 36°58' W 076°22'2 5.0
2017-Oct-15 21:53N 36°57' W 076°20'3 7.3
2017-Oct-15 21:28N 36°54' W 076°20'3 6.4
2017-Oct-15 21:00N 36°51' W 076°18'2 4.5
2017-Oct-15 20:30N 36°49' W 076°17'1 2.1
2017-Oct-15 20:00N 36°48' W 076°18'0 0.0
2017-Oct-15 19:30N 36°48' W 076°18'0 0.0
2017-Oct-15 15:47N 36°48' W 076°18'0 0.0
2017-Oct-15 15:30N 36°48' W 076°18'0 0.0
2017-Oct-15 15:00N 36°48' W 076°18'0 0.0
2017-Oct-15 14:00N 36°48' W 076°18'0 0.0
2017-Oct-15 13:30N 36°48' W 076°18'1 0.2
2017-Oct-15 06:39N 36°47' W 076°18'0 0.0
2017-Oct-15 06:30N 36°47' W 076°18'0 0.0
2017-Oct-15 06:00N 36°47' W 076°18'0 0.0
2017-Oct-15 05:30N 36°47' W 076°18'0 0.0
2017-Oct-15 05:00N 36°47' W 076°18'0 0.0
2017-Oct-15 04:30N 36°47' W 076°18'0 0.0
2017-Oct-15 04:00N 36°47' W 076°18'3 5.2
2017-Oct-15 03:30N 36°49' W 076°17'3 5.9
2017-Oct-15 03:00N 36°51' W 076°20'0 0.2
2017-Oct-15 02:30N 36°51' W 076°20'0 0.0
2017-Oct-15 01:59N 36°51' W 076°20'0 0.0
2017-Oct-15 01:30N 36°51' W 076°20'0 0.0
2017-Oct-15 01:00N 36°51' W 076°20'0 0.0
2017-Oct-15 00:26N 36°51' W 076°20'0 0.0
2017-Oct-15 00:00N 36°51' W 076°20'4 1.6
2017-Oct-14 21:34N 36°48' W 076°18'0 6.9
2017-Oct-14 21:30N 36°48' W 076°18'1 2.1
2017-Oct-14 21:00N 36°47' W 076°18'0 0.0
2017-Oct-14 20:30N 36°47' W 076°18'0 0.0
2017-Oct-14 20:00N 36°47' W 076°18'0 0.0
2017-Oct-14 19:30N 36°47' W 076°18'1 2.9
2017-Oct-14 19:00N 36°48' W 076°18'0 0.0
2017-Oct-14 18:30N 36°48' W 076°18'0 0.0
2017-Oct-14 18:00N 36°48' W 076°18'0 0.5
2017-Oct-14 17:30N 36°48' W 076°18'0 0.0
2017-Oct-14 17:00N 36°48' W 076°18'0 0.0
2017-Oct-14 16:30N 36°48' W 076°18'0 0.0
2017-Oct-14 16:00N 36°48' W 076°18'0 0.5
2017-Oct-14 15:30N 36°48' W 076°18'0 0.0
2017-Oct-14 15:00N 36°48' W 076°18'0 0.0
2017-Oct-14 14:30N 36°48' W 076°18'3 5.1
2017-Oct-14 14:00N 36°51' W 076°17'1 1.6
2017-Oct-14 13:30N 36°50' W 076°18'2 3.6
2017-Oct-14 13:00N 36°48' W 076°18'0 0.0
2017-Oct-14 12:30N 36°48' W 076°18'0 0.1
2017-Oct-14 12:00N 36°48' W 076°18'0 0.7
2017-Oct-14 11:30N 36°48' W 076°18'1 2.3
2017-Oct-14 11:00N 36°47' W 076°18'0 0.0
2017-Oct-14 10:30N 36°47' W 076°18'0 0.0
2017-Oct-14 10:00N 36°47' W 076°18'0 0.0
2017-Oct-14 09:30N 36°47' W 076°18'0 0.0
2017-Oct-14 09:00N 36°47' W 076°18'0 0.0
2017-Oct-14 08:30N 36°47' W 076°18'0 0.0
2017-Oct-14 08:00N 36°47' W 076°18'0 0.0
2017-Oct-14 07:30N 36°47' W 076°18'0 0.0
2017-Oct-14 07:00N 36°47' W 076°18'0 0.0
2017-Oct-14 06:30N 36°47' W 076°18'0 0.0
2017-Oct-14 06:00N 36°47' W 076°18'0 0.0
2017-Oct-14 05:30N 36°47' W 076°18'0 0.0
2017-Oct-14 05:00N 36°47' W 076°18'0 0.0
2017-Oct-14 04:30N 36°47' W 076°18'0 0.0
2017-Oct-14 04:00N 36°47' W 076°18'0 0.0
2017-Oct-14 03:30N 36°47' W 076°18'0 0.0
2017-Oct-14 03:00N 36°47' W 076°18'0 0.0
2017-Oct-14 02:30N 36°47' W 076°18'0 0.0
2017-Oct-14 02:00N 36°47' W 076°18'0 0.0
2017-Oct-14 01:28N 36°47' W 076°18'1 2.6
2017-Oct-14 00:55N 36°48' W 076°18'1 3.2
2017-Oct-14 00:28N 36°47' W 076°18'0 0.7
2017-Oct-13 23:57N 36°47' W 076°18'3 6.1
2017-Oct-13 23:30N 36°50' W 076°18'3 6.5
2017-Oct-13 23:00N 36°52' W 076°20'0 0.0
2017-Oct-12 08:47N 36°52' W 076°20'2 6.9
2017-Oct-12 08:30N 36°51' W 076°18'3 6.2
2017-Oct-12 08:00N 36°48' W 076°18'0 0.3
2017-Oct-12 07:30N 36°48' W 076°18'0 0.0
2017-Oct-12 06:59N 36°48' W 076°18'0 0.0
2017-Oct-12 06:28N 36°48' W 076°18'0 0.0
2017-Oct-11 23:05N 36°48' W 076°18'0 0.1
2017-Oct-11 23:00N 36°48' W 076°18'0 0.0
2017-Oct-11 22:29N 36°48' W 076°18'0 0.0
2017-Oct-11 21:59N 36°48' W 076°18'0 0.0
2017-Oct-11 21:30N 36°48' W 076°18'0 0.0
2017-Oct-11 20:57N 36°48' W 076°18'0 0.0
2017-Oct-11 20:28N 36°48' W 076°18'0 0.0
2017-Oct-11 19:59N 36°48' W 076°18'0 0.0
2017-Oct-11 19:30N 36°48' W 076°18'0 0.0
2017-Oct-11 18:59N 36°48' W 076°18'0 0.0
2017-Oct-11 18:30N 36°48' W 076°18'0 0.0
2017-Oct-11 17:53N 36°48' W 076°18'0 0.0
2017-Oct-11 17:30N 36°48' W 076°18'0 0.0
2017-Oct-11 17:00N 36°48' W 076°18'0 0.0
2017-Oct-10 23:58N 36°48' W 076°18'0 0.0
2017-Oct-10 23:30N 36°48' W 076°18'0 0.0
2017-Oct-10 23:00N 36°48' W 076°18'0 0.0
2017-Oct-10 22:29N 36°48' W 076°18'0 0.0
2017-Oct-10 22:00N 36°48' W 076°18'0 0.0
2017-Oct-10 21:30N 36°48' W 076°18'0 0.0
2017-Oct-10 20:59N 36°48' W 076°18'0 0.0
2017-Oct-10 20:30N 36°48' W 076°18'0 0.0
2017-Oct-10 19:59N 36°48' W 076°18'0 0.0
2017-Oct-10 19:30N 36°48' W 076°18'0 0.0
2017-Oct-10 19:00N 36°48' W 076°18'0 0.0
2017-Oct-10 18:30N 36°48' W 076°18'0 0.0
2017-Oct-10 17:59N 36°48' W 076°18'0 0.0
2017-Oct-10 17:30N 36°48' W 076°18'0 0.0
2017-Oct-10 17:00N 36°48' W 076°18'0 0.0
2017-Oct-10 16:29N 36°48' W 076°18'0 0.0
2017-Oct-10 15:58N 36°48' W 076°18'0 0.0
2017-Oct-10 15:28N 36°48' W 076°18'0 0.0
2017-Oct-10 15:00N 36°48' W 076°18'0 0.0
2017-Oct-10 13:57N 36°48' W 076°18'0 0.0
2017-Oct-10 13:29N 36°48' W 076°18'0 0.0
2017-Oct-10 13:00N 36°48' W 076°18'0 0.0
2017-Oct-10 12:29N 36°48' W 076°18'0 0.0
2017-Oct-10 11:56N 36°48' W 076°18'0 0.0
2017-Oct-10 11:30N 36°48' W 076°18'0 0.0
2017-Oct-10 11:00N 36°48' W 076°18'0 0.0
2017-Oct-10 10:22N 36°48' W 076°18'0 0.0
2017-Oct-10 10:00N 36°48' W 076°18'0 0.0
2017-Oct-10 09:27N 36°48' W 076°18'0 0.0
2017-Oct-10 09:00N 36°48' W 076°18'0 0.0
2017-Oct-10 08:27N 36°48' W 076°18'0 0.0
2017-Oct-10 07:57N 36°48' W 076°18'0 0.0
2017-Oct-10 07:30N 36°48' W 076°18'0 0.0
2017-Oct-10 06:59N 36°48' W 076°18'0 0.0
2017-Oct-10 06:30N 36°48' W 076°18'0 0.0
2017-Oct-09 06:16N 36°48' W 076°18'0 0.0
2017-Oct-09 04:37N 36°48' W 076°18'0 0.0
2017-Oct-09 04:29N 36°48' W 076°18'0 0.0
2017-Oct-09 03:57N 36°48' W 076°18'0 0.0
2017-Oct-09 03:30N 36°48' W 076°18'0 0.0
2017-Oct-09 02:59N 36°48' W 076°18'0 0.0
2017-Oct-09 02:30N 36°48' W 076°18'0 0.0
2017-Oct-09 02:00N 36°48' W 076°18'0 0.0
2017-Oct-09 01:30N 36°48' W 076°18'0 0.0
2017-Oct-09 00:56N 36°48' W 076°18'0 0.0
2017-Oct-09 00:30N 36°48' W 076°18'0 0.0
2017-Oct-09 00:00N 36°48' W 076°18'0 0.0
2017-Oct-08 23:29N 36°48' W 076°18'0 0.0
2017-Oct-08 23:00N 36°48' W 076°18'0 0.0
2017-Oct-08 22:30N 36°48' W 076°18'0 0.0
2017-Oct-08 22:00N 36°48' W 076°18'0 0.0
2017-Oct-08 21:30N 36°48' W 076°18'0 0.0
2017-Oct-08 21:00N 36°48' W 076°18'0 0.0
2017-Oct-08 20:30N 36°48' W 076°18'0 0.0
2017-Oct-08 20:00N 36°48' W 076°18'0 0.0
2017-Oct-08 19:30N 36°48' W 076°18'0 0.0
2017-Oct-08 19:00N 36°48' W 076°18'0 0.0
2017-Oct-08 18:30N 36°48' W 076°18'0 0.0
2017-Oct-08 18:00N 36°48' W 076°18'0 0.0
2017-Oct-08 17:30N 36°48' W 076°18'0 0.0
2017-Oct-08 17:00N 36°48' W 076°18'0 0.0
2017-Oct-08 16:30N 36°48' W 076°18'0 0.0
2017-Oct-08 16:00N 36°48' W 076°18'0 0.0
2017-Oct-08 15:29N 36°48' W 076°18'0 0.0
2017-Oct-08 14:59N 36°48' W 076°18'0 0.0
2017-Oct-08 14:29N 36°48' W 076°18'0 0.0
2017-Oct-08 14:00N 36°48' W 076°18'0 0.0
2017-Oct-08 13:28N 36°48' W 076°18'0 0.0
2017-Oct-08 13:00N 36°48' W 076°18'0 0.0
2017-Oct-08 12:30N 36°48' W 076°18'0 0.0
2017-Oct-08 11:59N 36°48' W 076°18'0 0.0
2017-Oct-08 11:30N 36°48' W 076°18'0 0.0
2017-Oct-08 11:00N 36°48' W 076°18'0 0.0
2017-Oct-08 10:29N 36°48' W 076°18'0 0.0
2017-Oct-08 10:00N 36°48' W 076°18'0 0.0
2017-Oct-08 09:30N 36°48' W 076°18'0 0.0
2017-Oct-08 08:59N 36°48' W 076°18'0 0.0
2017-Oct-08 08:30N 36°48' W 076°18'0 0.0
2017-Oct-08 07:57N 36°48' W 076°18'0 0.0
2017-Oct-08 07:29N 36°48' W 076°18'0 0.0
2017-Oct-08 06:59N 36°48' W 076°18'0 0.0
2017-Oct-08 06:27N 36°48' W 076°18'0 0.0
2017-Oct-08 05:59N 36°48' W 076°18'0 0.0
2017-Oct-08 05:30N 36°48' W 076°18'  

Dump ship's entire track history